Pocasset, Massachusetts
Current Conditions -  °F | °C
As of 3:55 PM on Friday 31 Oct 2014 (Local Time) from KFMH Reporting Station
Overcast Overcast  
Wind Chill: 52°   Ceiling: 4800
Heat Index: 52°   Visibility: 10mi
Dew Point: 41°   Wind: 15mph
Humidity: 67%   Direction: 60°ENE
Pressure: 29.95"   Gusts: 21mph
Location:  41.69°N, 70.64°W
Report Text: KFMH 311955Z AUTO 06013G18KT 10SM OVC048 11/05 A2995 RMK AO2
Loading
Personal Weather Stations






























Interactive Weather Map
Tropical Storm Tracking
New forecast layout! Learn more

10-Day Weather Forecast

Advertisements
Track Severe Weather on mobile